Pos First Name Last Name YOB Country Start
Num
Time Swim T1 Bike T2 Run
1 Pauline Landron 1999 FRA 6 01:05:25 00:11:41 00:01:07 00:34:05 00:00:23 00:18:09
2 Inês Rico 2002 POR 23 01:05:41 00:11:43 00:01:07 00:34:03 00:00:23 00:18:25
3 Carlotta Missaglia 1999 ITA 2 01:05:43 00:11:40 00:01:06 00:34:06 00:00:26 00:18:25
4 Gabriela Ribeiro 2000 POR 1 01:06:24 00:11:01 00:01:14 00:34:39 00:00:27 00:19:03
5 Audrey Ducornet 2000 FRA 3 01:06:38 00:12:12 00:01:00 00:34:21 00:00:24 00:18:41
6 Issy Morris 1999 GBR 4 01:06:52 00:11:50 00:01:10 00:34:37 00:00:29 00:18:46
7 Iona Miller 1999 GBR 15 01:07:18 00:11:51 00:01:07 00:34:36 00:00:32 00:19:12
8 Emma Ducreux 1999 FRA 31 01:07:33 00:11:45 00:01:20 00:34:32 00:00:29 00:19:27
9 Julie Iemmolo 1999 FRA 42 01:07:56 00:11:28 00:01:15 00:34:13 00:00:28 00:20:32
10 Barbara De Koning 2002 NED 47 01:07:57 00:11:41 00:01:16 00:34:43 00:00:24 00:19:53
11 Celia Merle 1999 FRA 5 01:07:57 00:11:40 00:01:18 00:34:34 00:00:25 00:20:00
12 Iria Rodriguez 1999 ESP 10 01:08:05 00:11:51 00:01:11 00:34:32 00:00:30 00:20:01
13 Erin Mcconnell 2000 IRL 36 01:08:06 00:11:32 00:01:15 00:34:12 00:00:25 00:20:42
14 Mariana Vargem 2001 POR 9 01:08:33 00:12:30 00:01:05 00:35:20 00:00:29 00:19:09
15 Tania Álvarez 1999 ESP 18 01:08:37 00:12:50 00:01:16 00:34:52 00:00:24 00:19:15
16 Maeve Gallagher 2001 IRL 40 01:08:44 00:13:00 00:01:12 00:34:44 00:00:27 00:19:21
17 Orla Walsh 1999 IRL 34 01:08:53 00:11:56 00:01:15 00:34:27 00:00:22 00:20:53
18 Maria Tomé 2001 POR 21 01:09:02 00:11:49 00:01:15 00:36:01 00:00:26 00:19:31
19 Laura Duran Morote 2000 ESP 22 01:09:04 00:12:46 00:01:17 00:34:57 00:00:23 00:19:41
20 Ana Guzmán Martínez 2000 ESP 33 01:09:08 00:12:45 00:01:15 00:34:58 00:00:30 00:19:40
21 Kate Gallagher 2000 GBR 8 01:09:10 00:12:56 00:01:20 00:35:27 00:00:25 00:19:02
22 Elise Tahay 2002 BEL 38 01:09:29 00:12:51 00:01:11 00:35:00 00:00:32 00:19:55
23 Anna Carrión I Barea 2000 ESP 12 01:09:33 00:12:26 00:01:30 00:35:07 00:00:30 00:20:00
24 Esther Gomez Gonzalez 2000 ESP 11 01:09:34 00:11:42 00:01:14 00:34:41 00:00:27 00:21:30
25 Imogen Moroney 2000 GBR 44 01:09:36 00:11:43 00:01:23 00:35:58 00:00:42 00:19:50
26 Yuliia Yaroshevska 2001 UKR 29 01:09:45 00:12:37 00:01:26 00:34:58 00:00:33 00:20:11
27 Joana Miranda 2000 POR 45 01:09:56 00:11:57 00:01:10 00:34:29 00:00:27 00:21:53
28 Roni Cohen 2001 ISR 24 01:10:01 00:12:39 00:01:10 00:35:08 00:00:28 00:20:36
29 Dirkje Lebouille 2002 NED 28 01:10:10 00:12:58 00:01:08 00:34:49 00:00:28 00:20:47
30 Inés Castaño García 1999 ESP 17 01:10:12 00:12:53 00:01:12 00:34:52 00:00:27 00:20:48
31 Laura Rodríguez Salinas 1999 ESP 35 01:10:27 00:12:46 00:01:17 00:34:57 00:00:34 00:20:53
32 Lúcia Vera Cruz 2000 POR 20 01:10:43 00:12:39 00:01:13 00:35:09 00:00:29 00:21:13
33 Iratxe Arenal Arribas 2001 ESP 37 01:10:44 00:11:49 00:01:16 00:35:54 00:00:30 00:21:15
34 Joyce Caro 1999 NED 41 01:11:12 00:12:59 00:01:21 00:35:25 00:00:28 00:20:59
35 Marta Pintanel Raymundo 1999 ESP 19 01:11:51 00:12:57 00:01:27 00:37:42 00:00:29 00:19:16
36 Andrea López Ramentol 2001 ESP 14 01:12:03 00:12:25 00:01:40 00:34:57 00:00:35 00:22:26
37 Shani Tsvitov 2002 ISR 30 01:12:16 00:12:35 00:01:10 00:35:15 00:00:31 00:22:45
38 Judit Ibarra Cazorla 2002 ESP 32 01:12:44 00:11:51 00:01:32 00:36:39 00:00:36 00:22:06
39 Sam Wennink 2000 NED 43 01:14:02 00:13:39 00:01:30 00:38:19 00:00:30 00:20:04
40 Elia Ibarra Cazorla 2000 ESP 25 01:15:39 00:11:56 00:01:14 00:38:57 00:00:33 00:22:59
41 María José Sánchez Lebrato 2000 ESP 27 01:16:23 00:12:38 00:01:26 00:40:10 00:00:29 00:21:40
42 Paula Maria Oliver Vives 2000 ESP 39 01:16:37 00:13:01 00:01:18 00:37:46 00:00:33 00:23:59
43 Maria Aimilia Kazamarioti 2001 GRE 16 01:17:16 00:13:46 00:01:26 00:39:03 00:00:29 00:22:32
44 Romy Spoelder 2001 NED 46 01:18:06 00:14:19 00:01:16 00:38:37 00:00:32 00:23:22
DNS Heidi Perry 2001 CAN 48 DNS 00:00:00 00:00:00 00:00:00 00:00:00 00:00:00
DNF Hanne Peeters 2001 BEL 7 DNF 00:12:25 00:01:12 00:35:21 00:00:24 00:00:00
Program notes:

Technical Delegate: Luis Coira/ESP. Competition Jury: Luis Coira/ESP, Martin Breedijk/NED. Vasco Rodriguez/POR.
Water Temperature 14.3 ºC. Air Temperaure 17ªC. Wetsuits allowed.
Athlete #22 received a 10 seconds penalty by the race start.
Athletes #14, #18. #28 and #35 received a 15 seconds penalty during the run segment